sensor_id;sensor_type;location;lat;lon;timestamp;P1;durP1;ratioP1;P2;durP2;ratioP2
2049;SDS011;8478;49.208;8.806;2023-06-26T00:00:24;8.13;;;7.63;;
2049;SDS011;8478;49.208;8.806;2023-06-26T00:02:50;8.10;;;7.50;;
2049;SDS011;8478;49.208;8.806;2023-06-26T00:05:16;8.00;;;7.40;;
2049;SDS011;8478;49.208;8.806;2023-06-26T00:07:42;8.30;;;7.63;;
2049;SDS011;8478;49.208;8.806;2023-06-26T00:10:08;7.90;;;7.30;;
2049;SDS011;8478;49.208;8.806;2023-06-26T00:12:33;7.70;;;7.20;;
2049;SDS011;8478;49.208;8.806;2023-06-26T00:14:59;8.03;;;7.40;;
2049;SDS011;8478;49.208;8.806;2023-06-26T00:17:25;7.70;;;7.20;;
2049;SDS011;8478;49.208;8.806;2023-06-26T00:19:51;8.93;;;8.23;;
2049;SDS011;8478;49.208;8.806;2023-06-26T00:22:17;8.43;;;7.83;;
2049;SDS011;8478;49.208;8.806;2023-06-26T00:24:43;8.00;;;7.40;;
2049;SDS011;8478;49.208;8.806;2023-06-26T00:27:10;7.80;;;7.30;;
2049;SDS011;8478;49.208;8.806;2023-06-26T00:29:35;7.17;;;6.67;;
2049;SDS011;8478;49.208;8.806;2023-06-26T00:32:03;7.97;;;7.43;;
2049;SDS011;8478;49.208;8.806;2023-06-26T00:34:29;7.60;;;7.10;;
2049;SDS011;8478;49.208;8.806;2023-06-26T00:36:55;7.70;;;7.00;;
2049;SDS011;8478;49.208;8.806;2023-06-26T00:39:21;7.83;;;7.23;;
2049;SDS011;8478;49.208;8.806;2023-06-26T00:41:46;8.47;;;7.80;;
2049;SDS011;8478;49.208;8.806;2023-06-26T00:44:12;7.80;;;7.20;;
2049;SDS011;8478;49.208;8.806;2023-06-26T00:46:38;7.27;;;6.67;;
2049;SDS011;8478;49.208;8.806;2023-06-26T00:49:04;7.93;;;7.40;;
2049;SDS011;8478;49.208;8.806;2023-06-26T00:51:30;8.07;;;7.50;;
2049;SDS011;8478;49.208;8.806;2023-06-26T00:53:56;8.10;;;7.50;;
2049;SDS011;8478;49.208;8.806;2023-06-26T00:56:23;8.10;;;7.50;;
2049;SDS011;8478;49.208;8.806;2023-06-26T00:58:49;7.03;;;6.53;;
2049;SDS011;8478;49.208;8.806;2023-06-26T01:01:15;7.50;;;6.90;;
2049;SDS011;8478;49.208;8.806;2023-06-26T01:03:43;8.90;;;8.30;;
2049;SDS011;8478;49.208;8.806;2023-06-26T01:06:11;7.83;;;7.23;;
2049;SDS011;8478;49.208;8.806;2023-06-26T01:08:41;7.73;;;7.13;;
2049;SDS011;8478;49.208;8.806;2023-06-26T01:11:08;8.10;;;7.50;;
2049;SDS011;8478;49.208;8.806;2023-06-26T01:13:34;7.40;;;6.90;;
2049;SDS011;8478;49.208;8.806;2023-06-26T01:16:00;7.67;;;7.17;;
2049;SDS011;8478;49.208;8.806;2023-06-26T01:18:28;8.00;;;7.50;;
2049;SDS011;8478;49.208;8.806;2023-06-26T01:20:54;8.77;;;8.07;;
2049;SDS011;8478;49.208;8.806;2023-06-26T01:26:13;8.33;;;7.63;;
2049;SDS011;8478;49.208;8.806;2023-06-26T01:28:47;8.13;;;7.53;;
2049;SDS011;8478;49.208;8.806;2023-06-26T01:31:14;8.73;;;8.03;;
2049;SDS011;8478;49.208;8.806;2023-06-26T01:33:40;8.47;;;7.87;;
2049;SDS011;8478;49.208;8.806;2023-06-26T01:36:06;8.50;;;7.90;;
2049;SDS011;8478;49.208;8.806;2023-06-26T01:38:33;10.00;;;7.93;;
2049;SDS011;8478;49.208;8.806;2023-06-26T01:40:59;8.00;;;7.33;;
2049;SDS011;8478;49.208;8.806;2023-06-26T01:46:27;8.37;;;7.43;;
2049;SDS011;8478;49.208;8.806;2023-06-26T01:49:18;7.20;;;6.70;;
2049;SDS011;8478;49.208;8.806;2023-06-26T01:52:35;8.40;;;7.80;;
2049;SDS011;8478;49.208;8.806;2023-06-26T01:57:41;8.57;;;7.97;;
2049;SDS011;8478;49.208;8.806;2023-06-26T02:00:07;8.53;;;7.80;;
2049;SDS011;8478;49.208;8.806;2023-06-26T02:02:36;8.23;;;7.63;;
2049;SDS011;8478;49.208;8.806;2023-06-26T02:05:02;7.83;;;7.30;;
2049;SDS011;8478;49.208;8.806;2023-06-26T02:07:27;8.27;;;7.70;;
2049;SDS011;8478;49.208;8.806;2023-06-26T02:09:53;7.50;;;6.90;;
2049;SDS011;8478;49.208;8.806;2023-06-26T02:12:19;8.97;;;8.37;;
2049;SDS011;8478;49.208;8.806;2023-06-26T02:14:45;8.50;;;7.90;;
2049;SDS011;8478;49.208;8.806;2023-06-26T02:17:10;7.90;;;7.20;;
2049;SDS011;8478;49.208;8.806;2023-06-26T02:19:36;8.50;;;7.90;;
2049;SDS011;8478;49.208;8.806;2023-06-26T02:22:04;8.00;;;7.40;;
2049;SDS011;8478;49.208;8.806;2023-06-26T02:24:30;7.63;;;7.13;;
2049;SDS011;8478;49.208;8.806;2023-06-26T02:26:57;7.80;;;7.20;;
2049;SDS011;8478;49.208;8.806;2023-06-26T02:29:23;8.50;;;7.80;;
2049;SDS011;8478;49.208;8.806;2023-06-26T02:31:48;7.97;;;7.47;;
2049;SDS011;8478;49.208;8.806;2023-06-26T02:34:14;8.83;;;8.23;;
2049;SDS011;8478;49.208;8.806;2023-06-26T02:36:40;8.23;;;7.63;;
2049;SDS011;8478;49.208;8.806;2023-06-26T02:39:05;7.93;;;7.33;;
2049;SDS011;8478;49.208;8.806;2023-06-26T02:41:31;8.80;;;8.20;;
2049;SDS011;8478;49.208;8.806;2023-06-26T02:43:56;8.07;;;7.57;;
2049;SDS011;8478;49.208;8.806;2023-06-26T02:46:22;7.57;;;7.07;;
2049;SDS011;8478;49.208;8.806;2023-06-26T02:48:48;9.30;;;8.60;;
2049;SDS011;8478;49.208;8.806;2023-06-26T02:51:13;7.90;;;7.40;;
2049;SDS011;8478;49.208;8.806;2023-06-26T02:53:39;8.57;;;7.90;;
2049;SDS011;8478;49.208;8.806;2023-06-26T02:56:05;8.40;;;7.77;;
2049;SDS011;8478;49.208;8.806;2023-06-26T02:58:30;7.80;;;7.20;;
2049;SDS011;8478;49.208;8.806;2023-06-26T03:00:56;8.13;;;7.53;;
2049;SDS011;8478;49.208;8.806;2023-06-26T03:03:21;8.83;;;8.23;;
2049;SDS011;8478;49.208;8.806;2023-06-26T03:05:47;8.53;;;7.93;;
2049;SDS011;8478;49.208;8.806;2023-06-26T03:08:13;8.47;;;7.87;;
2049;SDS011;8478;49.208;8.806;2023-06-26T03:10:39;9.33;;;8.53;;
2049;SDS011;8478;49.208;8.806;2023-06-26T03:13:05;8.70;;;8.10;;
2049;SDS011;8478;49.208;8.806;2023-06-26T03:15:31;9.60;;;8.90;;
2049;SDS011;8478;49.208;8.806;2023-06-26T03:17:56;8.60;;;8.00;;
2049;SDS011;8478;49.208;8.806;2023-06-26T03:20:22;9.20;;;8.50;;
2049;SDS011;8478;49.208;8.806;2023-06-26T03:22:48;8.60;;;8.00;;
2049;SDS011;8478;49.208;8.806;2023-06-26T03:25:13;8.40;;;7.73;;
2049;SDS011;8478;49.208;8.806;2023-06-26T03:27:39;8.10;;;7.50;;
2049;SDS011;8478;49.208;8.806;2023-06-26T03:30:05;8.20;;;7.60;;
2049;SDS011;8478;49.208;8.806;2023-06-26T03:32:31;8.73;;;7.93;;
2049;SDS011;8478;49.208;8.806;2023-06-26T03:34:57;8.87;;;8.17;;
2049;SDS011;8478;49.208;8.806;2023-06-26T03:37:22;8.00;;;7.40;;
2049;SDS011;8478;49.208;8.806;2023-06-26T03:39:48;9.00;;;8.40;;
2049;SDS011;8478;49.208;8.806;2023-06-26T03:42:14;7.53;;;7.03;;
2049;SDS011;8478;49.208;8.806;2023-06-26T03:44:40;8.57;;;7.97;;
2049;SDS011;8478;49.208;8.806;2023-06-26T03:47:05;8.53;;;7.93;;
2049;SDS011;8478;49.208;8.806;2023-06-26T03:49:31;8.53;;;7.93;;
2049;SDS011;8478;49.208;8.806;2023-06-26T03:51:56;8.50;;;7.90;;
2049;SDS011;8478;49.208;8.806;2023-06-26T03:54:22;9.10;;;8.40;;
2049;SDS011;8478;49.208;8.806;2023-06-26T03:56:48;9.07;;;8.40;;
2049;SDS011;8478;49.208;8.806;2023-06-26T03:59:14;9.53;;;8.83;;
2049;SDS011;8478;49.208;8.806;2023-06-26T04:01:39;8.23;;;7.63;;
2049;SDS011;8478;49.208;8.806;2023-06-26T04:04:05;9.57;;;8.97;;
2049;SDS011;8478;49.208;8.806;2023-06-26T04:06:31;8.50;;;7.87;;
2049;SDS011;8478;49.208;8.806;2023-06-26T04:08:57;8.30;;;7.80;;
2049;SDS011;8478;49.208;8.806;2023-06-26T04:11:23;9.13;;;8.43;;
2049;SDS011;8478;49.208;8.806;2023-06-26T04:13:49;8.70;;;8.10;;
2049;SDS011;8478;49.208;8.806;2023-06-26T04:16:14;8.70;;;8.10;;
2049;SDS011;8478;49.208;8.806;2023-06-26T04:18:40;9.03;;;8.33;;
2049;SDS011;8478;49.208;8.806;2023-06-26T04:23:36;8.80;;;8.13;;
2049;SDS011;8478;49.208;8.806;2023-06-26T04:26:03;9.30;;;8.60;;
2049;SDS011;8478;49.208;8.806;2023-06-26T04:28:35;8.00;;;7.50;;
2049;SDS011;8478;49.208;8.806;2023-06-26T04:31:01;9.00;;;8.30;;
2049;SDS011;8478;49.208;8.806;2023-06-26T04:33:30;10.83;;;9.93;;
2049;SDS011;8478;49.208;8.806;2023-06-26T04:35:56;8.77;;;8.17;;
2049;SDS011;8478;49.208;8.806;2023-06-26T04:38:22;9.80;;;9.00;;
2049;SDS011;8478;49.208;8.806;2023-06-26T04:40:48;9.60;;;8.80;;
2049;SDS011;8478;49.208;8.806;2023-06-26T04:43:14;8.47;;;7.87;;
2049;SDS011;8478;49.208;8.806;2023-06-26T04:45:40;9.48;;;8.77;;
2049;SDS011;8478;49.208;8.806;2023-06-26T04:48:06;9.30;;;8.70;;
2049;SDS011;8478;49.208;8.806;2023-06-26T04:50:31;9.23;;;8.53;;
2049;SDS011;8478;49.208;8.806;2023-06-26T04:52:58;8.53;;;7.83;;
2049;SDS011;8478;49.208;8.806;2023-06-26T04:55:24;8.70;;;8.10;;
2049;SDS011;8478;49.208;8.806;2023-06-26T04:57:50;9.27;;;8.57;;
2049;SDS011;8478;49.208;8.806;2023-06-26T05:00:16;9.20;;;8.53;;
2049;SDS011;8478;49.208;8.806;2023-06-26T05:02:42;8.53;;;7.93;;
2049;SDS011;8478;49.208;8.806;2023-06-26T05:05:08;9.30;;;8.60;;
2049;SDS011;8478;49.208;8.806;2023-06-26T05:07:34;9.10;;;8.40;;
2049;SDS011;8478;49.208;8.806;2023-06-26T05:09:59;9.27;;;8.67;;
2049;SDS011;8478;49.208;8.806;2023-06-26T05:12:25;9.47;;;8.77;;
2049;SDS011;8478;49.208;8.806;2023-06-26T05:14:51;9.50;;;8.80;;
2049;SDS011;8478;49.208;8.806;2023-06-26T05:17:16;9.13;;;8.43;;
2049;SDS011;8478;49.208;8.806;2023-06-26T05:19:42;9.90;;;9.17;;
2049;SDS011;8478;49.208;8.806;2023-06-26T05:22:08;9.60;;;8.90;;
2049;SDS011;8478;49.208;8.806;2023-06-26T05:24:37;9.33;;;8.63;;
2049;SDS011;8478;49.208;8.806;2023-06-26T05:27:04;9.90;;;9.20;;
2049;SDS011;8478;49.208;8.806;2023-06-26T05:29:30;10.10;;;9.40;;
2049;SDS011;8478;49.208;8.806;2023-06-26T05:31:56;9.33;;;8.63;;
2049;SDS011;8478;49.208;8.806;2023-06-26T05:34:23;9.57;;;8.67;;
2049;SDS011;8478;49.208;8.806;2023-06-26T05:36:52;9.57;;;8.87;;
2049;SDS011;8478;49.208;8.806;2023-06-26T05:39:22;9.70;;;8.93;;
2049;SDS011;8478;49.208;8.806;2023-06-26T05:41:48;9.90;;;9.20;;
2049;SDS011;8478;49.208;8.806;2023-06-26T05:44:14;10.13;;;9.33;;
2049;SDS011;8478;49.208;8.806;2023-06-26T05:46:39;9.93;;;9.23;;
2049;SDS011;8478;49.208;8.806;2023-06-26T05:49:05;10.03;;;9.33;;
2049;SDS011;8478;49.208;8.806;2023-06-26T05:51:31;9.93;;;9.23;;
2049;SDS011;8478;49.208;8.806;2023-06-26T05:53:56;10.47;;;9.70;;
2049;SDS011;8478;49.208;8.806;2023-06-26T05:56:22;10.47;;;9.77;;
2049;SDS011;8478;49.208;8.806;2023-06-26T05:58:48;10.00;;;9.27;;
2049;SDS011;8478;49.208;8.806;2023-06-26T06:01:15;11.67;;;10.77;;
2049;SDS011;8478;49.208;8.806;2023-06-26T06:03:41;9.00;;;8.30;;
2049;SDS011;8478;49.208;8.806;2023-06-26T06:06:06;9.80;;;9.10;;
2049;SDS011;8478;49.208;8.806;2023-06-26T06:08:32;10.77;;;9.87;;
2049;SDS011;8478;49.208;8.806;2023-06-26T06:10:59;10.23;;;9.50;;
2049;SDS011;8478;49.208;8.806;2023-06-26T06:13:26;10.33;;;9.57;;
2049;SDS011;8478;49.208;8.806;2023-06-26T06:15:51;10.20;;;8.97;;
2049;SDS011;8478;49.208;8.806;2023-06-26T06:18:17;10.20;;;9.50;;
2049;SDS011;8478;49.208;8.806;2023-06-26T06:20:43;10.77;;;9.87;;
2049;SDS011;8478;49.208;8.806;2023-06-26T06:23:08;9.40;;;8.80;;
2049;SDS011;8478;49.208;8.806;2023-06-26T06:25:34;10.23;;;9.43;;
2049;SDS011;8478;49.208;8.806;2023-06-26T06:28:00;10.23;;;9.53;;
2049;SDS011;8478;49.208;8.806;2023-06-26T06:30:25;9.80;;;9.10;;
2049;SDS011;8478;49.208;8.806;2023-06-26T06:32:52;9.30;;;8.70;;
2049;SDS011;8478;49.208;8.806;2023-06-26T06:35:20;9.67;;;9.07;;
2049;SDS011;8478;49.208;8.806;2023-06-26T06:37:46;9.07;;;8.47;;
2049;SDS011;8478;49.208;8.806;2023-06-26T06:40:11;9.87;;;9.17;;
2049;SDS011;8478;49.208;8.806;2023-06-26T06:42:37;9.00;;;8.43;;
2049;SDS011;8478;49.208;8.806;2023-06-26T06:45:03;9.40;;;8.70;;
2049;SDS011;8478;49.208;8.806;2023-06-26T06:47:30;10.30;;;9.30;;
2049;SDS011;8478;49.208;8.806;2023-06-26T06:49:59;9.53;;;8.83;;
2049;SDS011;8478;49.208;8.806;2023-06-26T06:52:32;9.13;;;8.53;;
2049;SDS011;8478;49.208;8.806;2023-06-26T06:55:05;9.77;;;9.07;;
2049;SDS011;8478;49.208;8.806;2023-06-26T06:57:33;9.70;;;9.00;;
2049;SDS011;8478;49.208;8.806;2023-06-26T07:00:04;10.13;;;9.43;;
2049;SDS011;8478;49.208;8.806;2023-06-26T07:02:33;9.43;;;8.77;;
2049;SDS011;8478;49.208;8.806;2023-06-26T07:05:00;10.73;;;10.03;;
2049;SDS011;8478;49.208;8.806;2023-06-26T07:07:28;11.30;;;10.60;;
2049;SDS011;8478;49.208;8.806;2023-06-26T07:09:56;10.47;;;9.63;;
2049;SDS011;8478;49.208;8.806;2023-06-26T07:12:26;9.70;;;8.93;;
2049;SDS011;8478;49.208;8.806;2023-06-26T07:14:52;9.70;;;9.00;;
2049;SDS011;8478;49.208;8.806;2023-06-26T07:17:19;9.73;;;9.03;;
2049;SDS011;8478;49.208;8.806;2023-06-26T07:19:45;11.27;;;10.47;;
2049;SDS011;8478;49.208;8.806;2023-06-26T07:22:11;10.90;;;9.90;;
2049;SDS011;8478;49.208;8.806;2023-06-26T07:24:37;10.40;;;9.60;;
2049;SDS011;8478;49.208;8.806;2023-06-26T07:27:03;11.20;;;10.40;;
2049;SDS011;8478;49.208;8.806;2023-06-26T07:29:28;10.70;;;9.90;;
2049;SDS011;8478;49.208;8.806;2023-06-26T07:31:54;10.00;;;9.30;;
2049;SDS011;8478;49.208;8.806;2023-06-26T07:34:20;10.50;;;9.70;;
2049;SDS011;8478;49.208;8.806;2023-06-26T07:36:45;10.53;;;9.83;;
2049;SDS011;8478;49.208;8.806;2023-06-26T07:39:11;10.83;;;9.93;;
2049;SDS011;8478;49.208;8.806;2023-06-26T07:41:37;10.80;;;10.07;;
2049;SDS011;8478;49.208;8.806;2023-06-26T07:44:02;10.50;;;9.80;;
2049;SDS011;8478;49.208;8.806;2023-06-26T07:46:28;9.77;;;9.07;;
2049;SDS011;8478;49.208;8.806;2023-06-26T07:48:54;9.70;;;8.90;;
2049;SDS011;8478;49.208;8.806;2023-06-26T07:51:20;9.97;;;9.27;;
2049;SDS011;8478;49.208;8.806;2023-06-26T07:53:45;10.30;;;9.53;;
2049;SDS011;8478;49.208;8.806;2023-06-26T07:56:11;11.47;;;10.67;;
2049;SDS011;8478;49.208;8.806;2023-06-26T07:58:37;9.30;;;8.60;;
2049;SDS011;8478;49.208;8.806;2023-06-26T08:01:03;10.27;;;9.47;;
2049;SDS011;8478;49.208;8.806;2023-06-26T08:03:28;10.73;;;10.00;;
2049;SDS011;8478;49.208;8.806;2023-06-26T08:05:54;10.67;;;9.97;;
2049;SDS011;8478;49.208;8.806;2023-06-26T08:08:19;10.30;;;9.60;;
2049;SDS011;8478;49.208;8.806;2023-06-26T08:10:45;9.80;;;9.10;;
2049;SDS011;8478;49.208;8.806;2023-06-26T08:13:11;9.53;;;8.83;;
2049;SDS011;8478;49.208;8.806;2023-06-26T08:15:37;10.20;;;9.47;;
2049;SDS011;8478;49.208;8.806;2023-06-26T08:18:02;9.87;;;9.07;;
2049;SDS011;8478;49.208;8.806;2023-06-26T08:20:28;9.20;;;8.60;;
2049;SDS011;8478;49.208;8.806;2023-06-26T08:22:54;10.40;;;9.70;;
2049;SDS011;8478;49.208;8.806;2023-06-26T08:25:20;10.33;;;9.53;;
2049;SDS011;8478;49.208;8.806;2023-06-26T08:27:46;10.40;;;9.60;;
2049;SDS011;8478;49.208;8.806;2023-06-26T08:30:11;9.73;;;8.97;;
2049;SDS011;8478;49.208;8.806;2023-06-26T08:32:38;10.53;;;9.83;;
2049;SDS011;8478;49.208;8.806;2023-06-26T08:35:05;9.87;;;9.13;;
2049;SDS011;8478;49.208;8.806;2023-06-26T08:37:31;10.83;;;10.07;;
2049;SDS011;8478;49.208;8.806;2023-06-26T08:39:59;10.57;;;9.77;;
2049;SDS011;8478;49.208;8.806;2023-06-26T08:42:25;10.10;;;9.40;;
2049;SDS011;8478;49.208;8.806;2023-06-26T08:44:50;10.33;;;9.63;;
2049;SDS011;8478;49.208;8.806;2023-06-26T08:47:17;10.63;;;9.83;;
2049;SDS011;8478;49.208;8.806;2023-06-26T08:52:31;10.27;;;9.57;;
2049;SDS011;8478;49.208;8.806;2023-06-26T08:55:02;11.37;;;10.20;;
2049;SDS011;8478;49.208;8.806;2023-06-26T08:57:31;10.40;;;9.47;;
2049;SDS011;8478;49.208;8.806;2023-06-26T08:59:58;9.73;;;8.93;;
2049;SDS011;8478;49.208;8.806;2023-06-26T09:02:23;10.17;;;9.47;;
2049;SDS011;8478;49.208;8.806;2023-06-26T09:04:50;10.50;;;9.67;;
2049;SDS011;8478;49.208;8.806;2023-06-26T09:07:16;9.63;;;8.93;;
2049;SDS011;8478;49.208;8.806;2023-06-26T09:09:42;10.47;;;9.67;;
2049;SDS011;8478;49.208;8.806;2023-06-26T09:12:08;10.00;;;9.30;;
2049;SDS011;8478;49.208;8.806;2023-06-26T09:14:35;9.63;;;8.93;;
2049;SDS011;8478;49.208;8.806;2023-06-26T09:17:02;10.47;;;9.73;;
2049;SDS011;8478;49.208;8.806;2023-06-26T09:19:28;10.17;;;9.37;;
2049;SDS011;8478;49.208;8.806;2023-06-26T09:21:54;10.50;;;9.57;;
2049;SDS011;8478;49.208;8.806;2023-06-26T09:24:21;11.80;;;10.73;;
2049;SDS011;8478;49.208;8.806;2023-06-26T09:26:47;9.93;;;9.23;;
2049;SDS011;8478;49.208;8.806;2023-06-26T09:29:14;11.07;;;9.97;;
2049;SDS011;8478;49.208;8.806;2023-06-26T09:31:40;10.10;;;9.40;;
2049;SDS011;8478;49.208;8.806;2023-06-26T09:34:07;9.60;;;8.90;;
2049;SDS011;8478;49.208;8.806;2023-06-26T09:36:33;10.13;;;9.43;;
2049;SDS011;8478;49.208;8.806;2023-06-26T09:39:04;11.33;;;10.50;;
2049;SDS011;8478;49.208;8.806;2023-06-26T09:41:35;10.10;;;9.40;;
2049;SDS011;8478;49.208;8.806;2023-06-26T09:44:04;10.37;;;9.57;;
2049;SDS011;8478;49.208;8.806;2023-06-26T09:46:31;10.77;;;9.90;;
2049;SDS011;8478;49.208;8.806;2023-06-26T09:49:03;10.10;;;9.40;;
2049;SDS011;8478;49.208;8.806;2023-06-26T09:51:33;9.97;;;9.17;;
2049;SDS011;8478;49.208;8.806;2023-06-26T09:54:00;11.00;;;9.90;;
2049;SDS011;8478;49.208;8.806;2023-06-26T09:56:28;10.33;;;9.53;;
2049;SDS011;8478;49.208;8.806;2023-06-26T09:58:58;11.00;;;10.10;;
2049;SDS011;8478;49.208;8.806;2023-06-26T10:01:26;10.60;;;9.77;;
2049;SDS011;8478;49.208;8.806;2023-06-26T10:03:53;10.60;;;9.70;;
2049;SDS011;8478;49.208;8.806;2023-06-26T10:06:45;10.60;;;9.80;;
2049;SDS011;8478;49.208;8.806;2023-06-26T10:09:12;11.23;;;10.43;;
2049;SDS011;8478;49.208;8.806;2023-06-26T10:11:51;10.73;;;9.93;;
2049;SDS011;8478;49.208;8.806;2023-06-26T10:14:20;10.53;;;9.73;;
2049;SDS011;8478;49.208;8.806;2023-06-26T10:16:49;10.57;;;9.80;;
2049;SDS011;8478;49.208;8.806;2023-06-26T10:19:16;10.93;;;10.23;;
2049;SDS011;8478;49.208;8.806;2023-06-26T10:21:50;11.13;;;10.33;;
2049;SDS011;8478;49.208;8.806;2023-06-26T10:24:17;9.47;;;8.87;;
2049;SDS011;8478;49.208;8.806;2023-06-26T10:26:45;9.87;;;9.17;;
2049;SDS011;8478;49.208;8.806;2023-06-26T10:29:17;11.20;;;10.40;;
2049;SDS011;8478;49.208;8.806;2023-06-26T10:31:49;10.77;;;10.07;;
2049;SDS011;8478;49.208;8.806;2023-06-26T10:34:17;11.10;;;10.30;;
2049;SDS011;8478;49.208;8.806;2023-06-26T10:36:44;10.00;;;9.30;;
2049;SDS011;8478;49.208;8.806;2023-06-26T10:39:09;10.10;;;9.30;;
2049;SDS011;8478;49.208;8.806;2023-06-26T10:41:38;10.73;;;9.83;;
2049;SDS011;8478;49.208;8.806;2023-06-26T10:44:08;11.23;;;10.47;;
2049;SDS011;8478;49.208;8.806;2023-06-26T10:49:13;10.67;;;9.87;;
2049;SDS011;8478;49.208;8.806;2023-06-26T10:51:39;10.60;;;9.90;;
2049;SDS011;8478;49.208;8.806;2023-06-26T10:54:15;11.00;;;10.10;;
2049;SDS011;8478;49.208;8.806;2023-06-26T10:56:45;9.50;;;8.80;;
2049;SDS011;8478;49.208;8.806;2023-06-26T10:59:16;11.43;;;10.53;;
2049;SDS011;8478;49.208;8.806;2023-06-26T11:01:47;10.67;;;9.87;;
2049;SDS011;8478;49.208;8.806;2023-06-26T11:09:55;10.10;;;9.40;;
2049;SDS011;8478;49.208;8.806;2023-06-26T11:12:38;10.40;;;9.70;;
2049;SDS011;8478;49.208;8.806;2023-06-26T11:15:08;10.20;;;9.40;;
2049;SDS011;8478;49.208;8.806;2023-06-26T11:17:35;10.73;;;9.93;;
2049;SDS011;8478;49.208;8.806;2023-06-26T11:20:02;10.70;;;9.97;;
2049;SDS011;8478;49.208;8.806;2023-06-26T11:22:30;10.63;;;9.83;;
2049;SDS011;8478;49.208;8.806;2023-06-26T11:24:58;10.10;;;9.50;;
2049;SDS011;8478;49.208;8.806;2023-06-26T11:27:24;10.13;;;9.33;;
2049;SDS011;8478;49.208;8.806;2023-06-26T11:30:25;11.10;;;10.30;;
2049;SDS011;8478;49.208;8.806;2023-06-26T11:32:51;11.83;;;10.93;;
2049;SDS011;8478;49.208;8.806;2023-06-26T11:35:26;8.90;;;8.20;;
2049;SDS011;8478;49.208;8.806;2023-06-26T11:37:55;13.10;;;9.70;;
2049;SDS011;8478;49.208;8.806;2023-06-26T11:40:22;11.00;;;10.00;;
2049;SDS011;8478;49.208;8.806;2023-06-26T11:42:52;14.43;;;9.90;;
2049;SDS011;8478;49.208;8.806;2023-06-26T11:45:19;9.57;;;8.87;;
2049;SDS011;8478;49.208;8.806;2023-06-26T11:47:45;9.80;;;9.00;;
2049;SDS011;8478;49.208;8.806;2023-06-26T11:50:17;10.63;;;9.83;;
2049;SDS011;8478;49.208;8.806;2023-06-26T11:52:43;9.90;;;9.10;;
2049;SDS011;8478;49.208;8.806;2023-06-26T11:55:10;10.37;;;9.50;;
2049;SDS011;8478;49.208;8.806;2023-06-26T11:57:36;10.27;;;9.57;;
2049;SDS011;8478;49.208;8.806;2023-06-26T12:00:12;10.13;;;9.43;;
2049;SDS011;8478;49.208;8.806;2023-06-26T12:02:38;10.33;;;9.53;;
2049;SDS011;8478;49.208;8.806;2023-06-26T12:05:04;11.60;;;10.50;;
2049;SDS011;8478;49.208;8.806;2023-06-26T12:07:31;11.33;;;10.37;;
2049;SDS011;8478;49.208;8.806;2023-06-26T12:09:57;11.13;;;10.10;;
2049;SDS011;8478;49.208;8.806;2023-06-26T12:12:24;10.50;;;9.50;;
2049;SDS011;8478;49.208;8.806;2023-06-26T12:14:51;10.07;;;9.37;;
2049;SDS011;8478;49.208;8.806;2023-06-26T12:17:17;10.73;;;9.93;;
2049;SDS011;8478;49.208;8.806;2023-06-26T12:19:47;10.20;;;9.50;;
2049;SDS011;8478;49.208;8.806;2023-06-26T12:22:13;9.93;;;9.23;;
2049;SDS011;8478;49.208;8.806;2023-06-26T12:24:39;11.03;;;10.13;;
2049;SDS011;8478;49.208;8.806;2023-06-26T12:27:08;11.27;;;10.37;;
2049;SDS011;8478;49.208;8.806;2023-06-26T12:29:35;11.00;;;10.10;;
2049;SDS011;8478;49.208;8.806;2023-06-26T12:32:03;8.50;;;7.80;;
2049;SDS011;8478;49.208;8.806;2023-06-26T12:34:33;9.70;;;9.00;;
2049;SDS011;8478;49.208;8.806;2023-06-26T12:37:09;10.23;;;9.47;;
2049;SDS011;8478;49.208;8.806;2023-06-26T12:42:41;9.27;;;8.60;;
2049;SDS011;8478;49.208;8.806;2023-06-26T12:45:10;10.40;;;9.60;;
2049;SDS011;8478;49.208;8.806;2023-06-26T12:47:36;11.97;;;9.23;;
2049;SDS011;8478;49.208;8.806;2023-06-26T12:50:04;9.97;;;8.90;;
2049;SDS011;8478;49.208;8.806;2023-06-26T12:52:31;11.10;;;9.13;;
2049;SDS011;8478;49.208;8.806;2023-06-26T12:54:56;10.37;;;9.43;;
2049;SDS011;8478;49.208;8.806;2023-06-26T12:57:22;9.70;;;8.70;;
2049;SDS011;8478;49.208;8.806;2023-06-26T12:59:48;9.77;;;9.00;;
2049;SDS011;8478;49.208;8.806;2023-06-26T13:02:14;9.80;;;8.73;;
2049;SDS011;8478;49.208;8.806;2023-06-26T13:04:40;9.00;;;8.10;;
2049;SDS011;8478;49.208;8.806;2023-06-26T13:07:08;8.40;;;7.80;;
2049;SDS011;8478;49.208;8.806;2023-06-26T13:09:35;8.80;;;8.20;;
2049;SDS011;8478;49.208;8.806;2023-06-26T13:12:01;8.73;;;8.03;;
2049;SDS011;8478;49.208;8.806;2023-06-26T13:14:29;8.37;;;7.67;;
2049;SDS011;8478;49.208;8.806;2023-06-26T13:16:55;8.83;;;8.10;;
2049;SDS011;8478;49.208;8.806;2023-06-26T13:19:20;9.83;;;7.77;;
2049;SDS011;8478;49.208;8.806;2023-06-26T13:21:46;8.73;;;7.87;;
2049;SDS011;8478;49.208;8.806;2023-06-26T13:24:12;8.70;;;8.03;;
2049;SDS011;8478;49.208;8.806;2023-06-26T13:26:38;8.33;;;7.63;;
2049;SDS011;8478;49.208;8.806;2023-06-26T13:29:04;10.37;;;7.33;;
2049;SDS011;8478;49.208;8.806;2023-06-26T13:31:30;6.90;;;6.40;;
2049;SDS011;8478;49.208;8.806;2023-06-26T13:33:59;6.10;;;5.60;;
2049;SDS011;8478;49.208;8.806;2023-06-26T13:36:28;7.40;;;6.90;;
2049;SDS011;8478;49.208;8.806;2023-06-26T13:38:54;8.60;;;7.83;;
2049;SDS011;8478;49.208;8.806;2023-06-26T13:41:23;7.57;;;6.87;;
2049;SDS011;8478;49.208;8.806;2023-06-26T13:43:49;6.20;;;5.70;;
2049;SDS011;8478;49.208;8.806;2023-06-26T13:46:15;7.23;;;6.70;;
2049;SDS011;8478;49.208;8.806;2023-06-26T13:48:42;12.67;;;6.23;;
2049;SDS011;8478;49.208;8.806;2023-06-26T13:51:08;6.70;;;6.10;;
2049;SDS011;8478;49.208;8.806;2023-06-26T13:53:36;6.37;;;5.87;;
2049;SDS011;8478;49.208;8.806;2023-06-26T13:56:02;6.80;;;6.20;;
2049;SDS011;8478;49.208;8.806;2023-06-26T13:58:28;7.20;;;6.70;;
2049;SDS011;8478;49.208;8.806;2023-06-26T14:00:54;7.13;;;6.63;;
2049;SDS011;8478;49.208;8.806;2023-06-26T14:03:20;7.13;;;6.63;;
2049;SDS011;8478;49.208;8.806;2023-06-26T14:05:46;7.57;;;7.07;;
2049;SDS011;8478;49.208;8.806;2023-06-26T14:08:12;6.77;;;6.27;;
2049;SDS011;8478;49.208;8.806;2023-06-26T14:10:38;7.60;;;6.97;;
2049;SDS011;8478;49.208;8.806;2023-06-26T14:13:04;8.07;;;6.80;;
2049;SDS011;8478;49.208;8.806;2023-06-26T14:15:30;7.33;;;6.83;;
2049;SDS011;8478;49.208;8.806;2023-06-26T14:17:56;7.57;;;6.87;;
2049;SDS011;8478;49.208;8.806;2023-06-26T14:20:21;7.90;;;7.30;;
2049;SDS011;8478;49.208;8.806;2023-06-26T14:22:47;9.00;;;8.30;;
2049;SDS011;8478;49.208;8.806;2023-06-26T14:25:14;8.97;;;8.37;;
2049;SDS011;8478;49.208;8.806;2023-06-26T14:27:42;8.53;;;7.93;;
2049;SDS011;8478;49.208;8.806;2023-06-26T14:30:08;8.50;;;7.90;;
2049;SDS011;8478;49.208;8.806;2023-06-26T14:32:34;9.13;;;8.43;;
2049;SDS011;8478;49.208;8.806;2023-06-26T14:35:00;10.23;;;9.43;;
2049;SDS011;8478;49.208;8.806;2023-06-26T14:37:26;9.27;;;8.57;;
2049;SDS011;8478;49.208;8.806;2023-06-26T14:39:54;10.53;;;9.63;;
2049;SDS011;8478;49.208;8.806;2023-06-26T14:42:20;10.70;;;9.80;;
2049;SDS011;8478;49.208;8.806;2023-06-26T14:44:45;10.93;;;10.03;;
2049;SDS011;8478;49.208;8.806;2023-06-26T14:47:16;9.90;;;9.03;;
2049;SDS011;8478;49.208;8.806;2023-06-26T14:49:42;10.23;;;9.23;;
2049;SDS011;8478;49.208;8.806;2023-06-26T14:52:08;10.90;;;9.80;;
2049;SDS011;8478;49.208;8.806;2023-06-26T14:54:34;10.97;;;10.07;;
2049;SDS011;8478;49.208;8.806;2023-06-26T14:57:02;9.93;;;9.03;;
2049;SDS011;8478;49.208;8.806;2023-06-26T14:59:28;10.13;;;9.23;;
2049;SDS011;8478;49.208;8.806;2023-06-26T15:01:54;10.47;;;9.47;;
2049;SDS011;8478;49.208;8.806;2023-06-26T15:04:20;10.30;;;8.60;;
2049;SDS011;8478;49.208;8.806;2023-06-26T15:06:45;8.93;;;8.23;;
2049;SDS011;8478;49.208;8.806;2023-06-26T15:09:11;9.33;;;8.57;;
2049;SDS011;8478;49.208;8.806;2023-06-26T15:11:37;8.43;;;7.70;;
2049;SDS011;8478;49.208;8.806;2023-06-26T15:14:02;8.20;;;7.50;;
2049;SDS011;8478;49.208;8.806;2023-06-26T15:16:28;7.83;;;7.33;;
2049;SDS011;8478;49.208;8.806;2023-06-26T15:18:54;8.70;;;8.10;;
2049;SDS011;8478;49.208;8.806;2023-06-26T15:21:19;7.43;;;6.83;;
2049;SDS011;8478;49.208;8.806;2023-06-26T15:23:49;6.80;;;6.30;;
2049;SDS011;8478;49.208;8.806;2023-06-26T15:26:15;6.43;;;5.93;;
2049;SDS011;8478;49.208;8.806;2023-06-26T15:28:41;6.10;;;5.60;;
2049;SDS011;8478;49.208;8.806;2023-06-26T15:31:07;6.27;;;5.70;;
2049;SDS011;8478;49.208;8.806;2023-06-26T15:33:36;5.50;;;5.00;;